createdAt,value
2018-08-06T00:01:11.232Z,20.30
2018-08-06T00:03:39.912Z,20.30
2018-08-06T00:06:08.124Z,20.20
2018-08-06T00:08:36.262Z,20.20
2018-08-06T00:11:04.413Z,20.20
2018-08-06T00:13:32.592Z,20.20
2018-08-06T00:16:00.758Z,20.20
2018-08-06T00:18:28.904Z,20.20
2018-08-06T00:20:57.063Z,20.10
2018-08-06T00:23:25.266Z,20.10
2018-08-06T00:25:53.399Z,20.10
2018-08-06T00:28:21.722Z,20.10
2018-08-06T00:30:49.908Z,20.10
2018-08-06T00:33:18.235Z,20.10
2018-08-06T00:35:46.403Z,20.00
2018-08-06T00:38:14.622Z,20.00
2018-08-06T00:40:42.860Z,19.90
2018-08-06T00:43:11.126Z,19.90
2018-08-06T00:45:39.312Z,19.90
2018-08-06T00:48:07.532Z,19.90
2018-08-06T00:50:35.744Z,19.90
2018-08-06T00:53:03.886Z,19.80
2018-08-06T00:55:32.152Z,19.80
2018-08-06T00:58:00.386Z,19.70
2018-08-06T01:00:28.758Z,19.70
2018-08-06T01:02:56.915Z,19.70
2018-08-06T01:05:25.048Z,19.60
2018-08-06T01:07:53.184Z,19.60
2018-08-06T01:10:21.360Z,19.60
2018-08-06T01:12:49.503Z,19.60
2018-08-06T01:15:18.733Z,19.60
2018-08-06T01:17:46.971Z,19.60
2018-08-06T01:20:15.381Z,19.50
2018-08-06T01:22:44.257Z,19.50
2018-08-06T01:25:12.937Z,19.40
2018-08-06T01:27:41.133Z,19.40
2018-08-06T01:30:11.090Z,19.40
2018-08-06T01:32:39.227Z,19.40
2018-08-06T01:35:08.756Z,19.40
2018-08-06T01:37:36.905Z,19.40
2018-08-06T01:40:06.986Z,19.40
2018-08-06T01:42:36.140Z,19.30
2018-08-06T01:45:04.955Z,19.30
2018-08-06T01:47:33.223Z,19.30
2018-08-06T01:50:01.564Z,19.30
2018-08-06T01:52:29.857Z,19.20
2018-08-06T01:54:58.101Z,19.20
2018-08-06T01:57:26.255Z,19.20
2018-08-06T01:59:54.572Z,19.10
2018-08-06T02:02:22.793Z,19.10
2018-08-06T02:04:51.961Z,19.10
2018-08-06T02:07:20.298Z,19.00
2018-08-06T02:09:48.599Z,19.00
2018-08-06T02:12:16.921Z,19.00
2018-08-06T02:14:45.048Z,18.90
2018-08-06T02:17:13.308Z,19.00
2018-08-06T02:19:41.495Z,18.90
2018-08-06T02:22:09.787Z,18.90
2018-08-06T02:24:38.010Z,18.80
2018-08-06T02:27:06.701Z,18.80
2018-08-06T02:32:02.758Z,18.70
2018-08-06T02:34:31.010Z,18.70
2018-08-06T02:36:59.152Z,18.70
2018-08-06T02:39:27.508Z,18.70
2018-08-06T02:41:55.690Z,18.70
2018-08-06T02:44:24.027Z,18.70
2018-08-06T02:46:52.273Z,18.70
2018-08-06T02:49:20.513Z,18.70
2018-08-06T02:54:16.901Z,18.60
2018-08-06T02:56:45.113Z,18.60
2018-08-06T02:59:13.347Z,18.60
2018-08-06T03:01:41.751Z,18.60
2018-08-06T03:04:09.922Z,18.60
2018-08-06T03:06:38.305Z,18.50
2018-08-06T03:09:09.080Z,18.50
2018-08-06T03:11:37.255Z,18.40
2018-08-06T03:14:05.425Z,18.40
2018-08-06T03:16:33.624Z,18.40
2018-08-06T03:19:02.266Z,18.40
2018-08-06T03:21:30.731Z,18.40
2018-08-06T03:23:58.939Z,18.40
2018-08-06T03:26:27.114Z,18.30
2018-08-06T03:28:55.305Z,18.30
2018-08-06T03:31:23.653Z,18.30
2018-08-06T03:33:51.805Z,18.30
2018-08-06T03:36:20.090Z,18.30
2018-08-06T03:38:48.223Z,18.30
2018-08-06T03:41:16.651Z,18.30
2018-08-06T03:43:44.807Z,18.30
2018-08-06T03:46:13.117Z,18.30
2018-08-06T03:48:41.297Z,18.30
2018-08-06T03:51:09.613Z,18.30
2018-08-06T03:53:37.807Z,18.30
2018-08-06T03:56:06.045Z,18.30
2018-08-06T03:58:34.299Z,18.30
2018-08-06T04:01:02.679Z,18.30
2018-08-06T04:03:30.831Z,18.30
2018-08-06T04:05:59.021Z,18.30
2018-08-06T04:08:27.267Z,18.30
2018-08-06T04:10:55.586Z,18.30
2018-08-06T04:13:23.730Z,18.40
2018-08-06T04:15:51.889Z,18.40
2018-08-06T04:18:20.266Z,18.30
2018-08-06T04:20:48.441Z,18.40
2018-08-06T04:23:16.574Z,18.40
2018-08-06T04:25:44.908Z,18.40
2018-08-06T04:28:13.042Z,18.40
2018-08-06T04:30:41.247Z,18.40
2018-08-06T04:33:09.525Z,18.50
2018-08-06T04:35:37.709Z,18.50
2018-08-06T04:38:05.939Z,18.60
2018-08-06T04:40:34.104Z,18.60
2018-08-06T04:43:02.217Z,18.60
2018-08-06T04:45:30.364Z,18.60
2018-08-06T04:47:58.479Z,18.70
2018-08-06T04:50:26.713Z,18.70
2018-08-06T04:52:54.838Z,18.70
2018-08-06T04:55:22.985Z,18.70
2018-08-06T04:57:51.148Z,18.80
2018-08-06T05:00:19.291Z,18.80
2018-08-06T05:02:47.614Z,19.10
2018-08-06T05:05:15.743Z,19.80
2018-08-06T05:07:43.857Z,21.10
2018-08-06T05:10:12.007Z,22.30
2018-08-06T05:12:40.203Z,23.20
2018-08-06T05:17:36.387Z,24.10
2018-08-06T05:20:04.967Z,24.30
2018-08-06T05:22:34.001Z,24.40
2018-08-06T05:25:02.375Z,24.60
2018-08-06T05:27:30.656Z,24.70
2018-08-06T05:29:58.860Z,24.80
2018-08-06T05:32:27.029Z,25.00
2018-08-06T05:34:55.234Z,25.10
2018-08-06T05:39:51.878Z,25.30
2018-08-06T05:42:20.041Z,25.10
2018-08-06T05:44:48.443Z,25.10
2018-08-06T05:47:16.697Z,25.30
2018-08-06T05:49:44.847Z,25.40
2018-08-06T05:52:13.085Z,25.40
2018-08-06T05:59:38.763Z,25.10
2018-08-06T06:02:06.933Z,25.00
2018-08-06T06:07:03.091Z,24.80
2018-08-06T06:09:31.260Z,24.70
2018-08-06T06:11:59.423Z,24.70
2018-08-06T06:14:27.664Z,24.80
2018-08-06T06:16:55.871Z,24.90
2018-08-06T06:19:24.034Z,24.80
2018-08-06T06:21:52.232Z,24.80
2018-08-06T06:24:20.383Z,24.70
2018-08-06T06:26:48.579Z,24.70
2018-08-06T06:29:17.310Z,24.60
2018-08-06T06:31:45.889Z,24.60
2018-08-06T06:34:14.219Z,24.60
2018-08-06T06:36:42.561Z,24.80
2018-08-06T06:39:11.989Z,24.90
2018-08-06T06:44:10.205Z,24.90
2018-08-06T06:46:39.226Z,25.00
2018-08-06T06:49:07.739Z,25.10
2018-08-06T06:54:03.847Z,24.80
2018-08-06T06:56:31.991Z,24.90
2018-08-06T06:59:00.207Z,25.00
2018-08-06T07:01:28.372Z,25.30
2018-08-06T07:03:56.733Z,25.40
2018-08-06T07:06:25.081Z,25.50
2018-08-06T07:08:53.302Z,25.60
2018-08-06T07:11:21.494Z,25.60
2018-08-06T07:13:49.775Z,25.40
2018-08-06T07:16:17.930Z,25.50
2018-08-06T07:18:46.204Z,25.40
2018-08-06T07:21:14.453Z,25.30
2018-08-06T07:23:42.664Z,25.30
2018-08-06T07:26:10.827Z,25.30
2018-08-06T07:28:39.049Z,25.20
2018-08-06T07:31:07.249Z,25.10
2018-08-06T07:33:35.504Z,25.10
2018-08-06T07:36:03.679Z,25.00
2018-08-06T07:38:31.851Z,25.00
2018-08-06T07:41:00.191Z,25.00
2018-08-06T07:43:28.417Z,25.10
2018-08-06T07:45:56.812Z,25.10
2018-08-06T07:48:24.993Z,25.00
2018-08-06T07:50:53.918Z,25.00
2018-08-06T07:53:22.630Z,25.00
2018-08-06T07:58:19.130Z,24.70
2018-08-06T08:00:47.431Z,24.50
2018-08-06T08:03:15.588Z,24.40
2018-08-06T08:05:43.791Z,24.50
2018-08-06T08:08:12.972Z,24.60
2018-08-06T08:10:41.151Z,24.60
2018-08-06T08:13:09.308Z,24.60
2018-08-06T08:15:37.508Z,24.60
2018-08-06T08:18:05.715Z,24.60
2018-08-06T08:20:33.881Z,24.60
2018-08-06T08:23:01.989Z,24.70
2018-08-06T08:25:30.202Z,24.70
2018-08-06T08:27:58.662Z,24.60
2018-08-06T08:30:26.851Z,24.50
2018-08-06T08:32:54.997Z,24.50
2018-08-06T08:35:29.021Z,24.40
2018-08-06T08:37:57.173Z,24.40
2018-08-06T08:40:25.343Z,24.30
2018-08-06T08:42:53.440Z,24.20
2018-08-06T08:45:21.570Z,24.10
2018-08-06T08:47:49.695Z,24.10
2018-08-06T08:50:19.306Z,24.20
2018-08-06T08:52:47.417Z,24.20
2018-08-06T08:55:16.858Z,24.20
2018-08-06T08:57:45.095Z,24.30
2018-08-06T09:00:21.925Z,24.40
2018-08-06T09:02:50.910Z,24.40
2018-08-06T09:05:19.598Z,24.50
2018-08-06T09:07:48.504Z,24.50
2018-08-06T09:10:17.517Z,24.50
2018-08-06T09:12:46.045Z,24.40
2018-08-06T09:15:16.980Z,24.40
2018-08-06T09:17:45.170Z,24.40
2018-08-06T09:20:13.432Z,24.40
2018-08-06T09:22:42.605Z,24.50
2018-08-06T09:25:11.845Z,24.70
2018-08-06T09:30:12.684Z,24.70
2018-08-06T09:32:41.739Z,24.70
2018-08-06T09:35:09.965Z,24.70
2018-08-06T09:40:09.673Z,24.80
2018-08-06T09:42:38.359Z,24.90
2018-08-06T09:45:07.362Z,24.90
2018-08-06T09:47:35.633Z,24.90
2018-08-06T09:50:04.589Z,25.00
2018-08-06T09:52:32.803Z,24.90
2018-08-06T09:55:01.078Z,24.90
2018-08-06T09:57:29.359Z,25.00
2018-08-06T09:59:57.731Z,25.10
2018-08-06T10:02:25.941Z,25.20
2018-08-06T10:04:54.051Z,25.30
2018-08-06T10:07:22.154Z,25.30
2018-08-06T10:09:50.327Z,25.30
2018-08-06T10:12:18.563Z,25.30
2018-08-06T10:14:46.678Z,25.40
2018-08-06T10:17:14.836Z,25.50
2018-08-06T10:19:43.095Z,25.50
2018-08-06T10:22:11.737Z,25.60
2018-08-06T10:24:39.895Z,25.60
2018-08-06T10:29:36.072Z,25.80
2018-08-06T10:32:04.286Z,25.90
2018-08-06T10:34:32.468Z,25.80
2018-08-06T10:37:00.716Z,25.80
2018-08-06T10:44:24.783Z,25.70
2018-08-06T10:46:53.029Z,25.70
2018-08-06T10:49:21.157Z,25.80
2018-08-06T10:51:49.491Z,25.90
2018-08-06T10:54:17.878Z,26.00
2018-08-06T10:56:47.169Z,26.00
2018-08-06T10:59:15.330Z,26.10
2018-08-06T11:04:11.396Z,26.30
2018-08-06T11:06:39.596Z,26.30
2018-08-06T11:09:08.205Z,26.30
2018-08-06T11:11:36.378Z,26.40
2018-08-06T11:14:04.766Z,26.50
2018-08-06T11:16:32.943Z,26.50
2018-08-06T11:19:01.106Z,26.60
2018-08-06T11:21:29.309Z,26.60
2018-08-06T11:23:57.538Z,26.70
2018-08-06T11:26:25.977Z,26.60
2018-08-06T11:28:54.163Z,26.60
2018-08-06T11:31:22.397Z,26.70
2018-08-06T11:33:50.717Z,26.70
2018-08-06T11:36:18.930Z,26.70
2018-08-06T11:38:47.047Z,26.70
2018-08-06T11:41:15.234Z,26.70
2018-08-06T11:43:43.446Z,26.80
2018-08-06T11:46:11.656Z,26.80
2018-08-06T11:48:39.985Z,26.90
2018-08-06T11:51:09.223Z,27.00
2018-08-06T11:53:37.533Z,27.10
2018-08-06T11:56:05.965Z,27.00
2018-08-06T11:58:34.199Z,27.00
2018-08-06T12:01:02.333Z,27.00
2018-08-06T12:03:30.631Z,27.00
2018-08-06T12:05:58.820Z,27.00
2018-08-06T12:08:26.994Z,27.10
2018-08-06T12:10:55.366Z,27.10
2018-08-06T12:13:23.577Z,27.10
2018-08-06T12:15:51.783Z,27.10
2018-08-06T12:18:20.017Z,27.20
2018-08-06T12:20:48.365Z,27.20
2018-08-06T12:23:17.423Z,27.30
2018-08-06T12:25:45.600Z,27.30
2018-08-06T12:28:13.777Z,27.30
2018-08-06T12:30:41.903Z,27.40
2018-08-06T12:33:10.075Z,27.50
2018-08-06T12:35:38.188Z,27.50
2018-08-06T12:40:34.289Z,27.70
2018-08-06T12:43:02.593Z,27.80
2018-08-06T12:45:30.763Z,27.80
2018-08-06T12:47:58.868Z,27.70
2018-08-06T12:50:27.078Z,27.80
2018-08-06T12:52:55.224Z,27.80
2018-08-06T12:55:23.378Z,27.80
2018-08-06T12:57:51.608Z,27.80
2018-08-06T13:00:22.040Z,27.70
2018-08-06T13:02:50.997Z,27.70
2018-08-06T13:05:19.932Z,27.60
2018-08-06T13:07:48.208Z,27.50
2018-08-06T13:10:16.480Z,27.50
2018-08-06T13:15:13.851Z,27.60
2018-08-06T13:17:42.034Z,27.70
2018-08-06T13:20:10.310Z,27.70
2018-08-06T13:22:38.460Z,27.80
2018-08-06T13:25:07.981Z,27.90
2018-08-06T13:27:36.187Z,27.90
2018-08-06T13:32:41.215Z,28.00
2018-08-06T13:35:09.408Z,28.00
2018-08-06T13:37:37.619Z,28.00
2018-08-06T13:40:06.840Z,28.00
2018-08-06T13:42:35.010Z,28.10
2018-08-06T13:45:04.017Z,28.10
2018-08-06T13:47:32.202Z,28.00
2018-08-06T13:50:00.323Z,28.10
2018-08-06T13:52:28.452Z,28.00
2018-08-06T13:54:56.565Z,28.00
2018-08-06T13:57:24.797Z,28.00
2018-08-06T13:59:52.958Z,28.00
2018-08-06T14:02:21.165Z,28.00
2018-08-06T14:04:49.342Z,28.00
2018-08-06T14:07:17.750Z,28.10
2018-08-06T14:09:45.981Z,28.10
2018-08-06T14:12:14.122Z,28.00
2018-08-06T14:14:42.274Z,28.00
2018-08-06T14:17:10.564Z,27.90
2018-08-06T14:19:38.798Z,28.00
2018-08-06T14:22:07.063Z,28.00
2018-08-06T14:24:35.276Z,28.10
2018-08-06T14:27:03.452Z,28.20
2018-08-06T14:29:31.714Z,28.20
2018-08-06T14:31:59.875Z,28.20
2018-08-06T14:34:28.381Z,28.30
2018-08-06T14:36:56.523Z,28.30
2018-08-06T14:39:24.709Z,28.30
2018-08-06T14:41:52.835Z,28.20
2018-08-06T14:44:20.992Z,28.20
2018-08-06T14:46:49.168Z,28.20
2018-08-06T14:49:17.348Z,28.20
2018-08-06T14:51:45.581Z,28.20
2018-08-06T14:54:13.756Z,28.20
2018-08-06T14:56:41.851Z,28.10
2018-08-06T14:59:10.023Z,28.10
2018-08-06T15:01:38.138Z,28.10
2018-08-06T15:04:08.221Z,28.00
2018-08-06T15:06:36.379Z,27.90
2018-08-06T15:09:07.660Z,27.90
2018-08-06T15:14:06.265Z,27.90
2018-08-06T15:19:02.349Z,28.00
2018-08-06T15:21:30.514Z,28.00
2018-08-06T15:23:58.669Z,28.00
2018-08-06T15:26:26.981Z,27.60
2018-08-06T15:28:55.123Z,28.00
2018-08-06T15:31:23.404Z,27.90
2018-08-06T15:33:51.973Z,27.90
2018-08-06T15:36:20.185Z,27.80
2018-08-06T15:41:16.272Z,27.70
2018-08-06T15:43:44.363Z,27.70
2018-08-06T15:46:12.736Z,27.70
2018-08-06T15:48:40.912Z,27.70
2018-08-06T15:51:09.160Z,27.70
2018-08-06T15:53:37.301Z,27.70
2018-08-06T15:56:05.845Z,27.70
2018-08-06T15:58:34.017Z,27.70
2018-08-06T16:01:02.146Z,27.70
2018-08-06T16:03:30.412Z,27.70
2018-08-06T16:05:58.619Z,27.70
2018-08-06T16:08:27.097Z,27.70
2018-08-06T16:10:55.351Z,27.70
2018-08-06T16:13:23.612Z,27.70
2018-08-06T16:15:51.714Z,27.70
2018-08-06T16:18:20.937Z,27.70
2018-08-06T16:20:49.175Z,27.60
2018-08-06T16:23:17.347Z,27.60
2018-08-06T16:25:45.530Z,27.60
2018-08-06T16:28:13.733Z,27.60
2018-08-06T16:30:41.978Z,27.50
2018-08-06T16:33:10.217Z,27.50
2018-08-06T16:35:38.543Z,27.40
2018-08-06T16:38:06.783Z,27.40
2018-08-06T16:40:35.112Z,27.40
2018-08-06T16:43:03.267Z,27.30
2018-08-06T16:45:31.509Z,27.30
2018-08-06T16:47:59.737Z,27.30
2018-08-06T16:50:27.898Z,27.30
2018-08-06T16:55:24.321Z,27.30
2018-08-06T16:57:52.512Z,27.20
2018-08-06T17:00:22.067Z,27.20
2018-08-06T17:02:50.988Z,27.10
2018-08-06T17:05:19.111Z,27.10
2018-08-06T17:07:48.140Z,27.00
2018-08-06T17:10:17.728Z,27.00
2018-08-06T17:12:47.701Z,26.90
2018-08-06T17:15:17.290Z,26.90
2018-08-06T17:17:46.148Z,26.80
2018-08-06T17:20:16.516Z,26.80
2018-08-06T17:22:45.997Z,26.70
2018-08-06T17:25:14.401Z,26.70
2018-08-06T17:27:43.082Z,26.60
2018-08-06T17:30:12.192Z,26.60
2018-08-06T17:32:40.332Z,26.50
2018-08-06T17:35:10.892Z,26.50
2018-08-06T17:37:39.096Z,26.50
2018-08-06T17:40:17.500Z,26.40
2018-08-06T17:42:45.647Z,26.40
2018-08-06T17:45:18.629Z,26.30
2018-08-06T17:50:16.397Z,26.30
2018-08-06T17:52:45.714Z,26.20
2018-08-06T17:55:14.767Z,26.10
2018-08-06T17:57:42.975Z,26.10
2018-08-06T18:00:11.755Z,26.10
2018-08-06T18:02:39.962Z,26.00
2018-08-06T18:05:10.056Z,26.00
2018-08-06T18:07:39.345Z,25.90
2018-08-06T18:10:09.026Z,25.80
2018-08-06T18:12:37.208Z,25.80
2018-08-06T18:15:05.532Z,25.70
2018-08-06T18:17:33.700Z,25.70
2018-08-06T18:20:01.957Z,25.60
2018-08-06T18:22:30.236Z,25.60
2018-08-06T18:24:58.410Z,25.50
2018-08-06T18:27:26.616Z,25.40
2018-08-06T18:29:54.680Z,25.40
2018-08-06T18:32:22.784Z,25.30
2018-08-06T18:34:51.058Z,25.20
2018-08-06T18:37:19.412Z,25.20
2018-08-06T18:39:47.586Z,25.10
2018-08-06T18:42:15.722Z,25.00
2018-08-06T18:44:43.882Z,24.90
2018-08-06T18:47:12.116Z,24.80
2018-08-06T18:49:40.368Z,24.80
2018-08-06T18:52:08.560Z,24.70
2018-08-06T18:54:36.968Z,24.60
2018-08-06T18:57:05.145Z,24.60
2018-08-06T18:59:33.351Z,24.60
2018-08-06T19:02:01.706Z,24.50
2018-08-06T19:04:29.844Z,24.40
2018-08-06T19:06:58.032Z,24.30
2018-08-06T19:09:26.196Z,24.20
2018-08-06T19:11:58.630Z,24.20
2018-08-06T19:16:54.954Z,24.00
2018-08-06T19:19:24.883Z,24.00
2018-08-06T19:21:54.194Z,23.90
2018-08-06T19:24:27.809Z,23.90
2018-08-06T19:26:56.015Z,23.90
2018-08-06T19:29:24.454Z,23.80
2018-08-06T19:31:52.708Z,23.70
2018-08-06T19:34:21.172Z,23.70
2018-08-06T19:36:54.764Z,23.60
2018-08-06T19:39:22.965Z,23.60
2018-08-06T19:41:51.250Z,23.50
2018-08-06T19:46:47.504Z,23.40
2018-08-06T19:51:49.253Z,23.30
2018-08-06T19:54:17.456Z,23.30
2018-08-06T19:56:45.648Z,23.30
2018-08-06T19:59:13.876Z,23.40
2018-08-06T20:01:42.088Z,23.50
2018-08-06T20:04:10.234Z,23.50
2018-08-06T20:06:38.597Z,23.50
2018-08-06T20:09:10.824Z,23.50
2018-08-06T20:11:39.329Z,23.40
2018-08-06T20:14:07.451Z,23.40
2018-08-06T20:16:35.607Z,23.40
2018-08-06T20:19:03.782Z,23.50
2018-08-06T20:21:32.914Z,23.50
2018-08-06T20:24:01.086Z,23.50
2018-08-06T20:26:29.286Z,23.50
2018-08-06T20:28:57.471Z,23.40
2018-08-06T20:31:25.805Z,23.40
2018-08-06T20:33:54.190Z,23.40
2018-08-06T20:36:22.374Z,23.30
2018-08-06T20:38:50.757Z,23.30
2018-08-06T20:41:20.191Z,23.20
2018-08-06T20:43:48.433Z,23.20
2018-08-06T20:46:16.801Z,23.20
2018-08-06T20:48:45.034Z,23.10
2018-08-06T20:51:13.220Z,23.00
2018-08-06T20:53:41.428Z,23.00
2018-08-06T20:58:37.625Z,22.90
2018-08-06T21:01:05.861Z,22.90
2018-08-06T21:03:34.142Z,22.80
2018-08-06T21:06:03.341Z,22.70
2018-08-06T21:10:59.680Z,22.70
2018-08-06T21:13:28.014Z,22.70
2018-08-06T21:15:56.262Z,22.70
2018-08-06T21:18:24.532Z,22.70
2018-08-06T21:20:52.729Z,22.70
2018-08-06T21:23:21.107Z,22.70
2018-08-06T21:25:49.320Z,22.70
2018-08-06T21:28:17.490Z,22.70
2018-08-06T21:33:13.765Z,22.60
2018-08-06T21:35:41.884Z,22.60
2018-08-06T21:38:10.070Z,22.60
2018-08-06T21:40:38.254Z,22.50
2018-08-06T21:43:06.774Z,22.50
2018-08-06T21:45:35.130Z,22.40
2018-08-06T21:48:03.436Z,22.40
2018-08-06T21:50:31.603Z,22.40
2018-08-06T21:55:27.663Z,22.30
2018-08-06T21:57:55.842Z,22.30
2018-08-06T22:00:34.244Z,22.20
2018-08-06T22:03:03.695Z,22.20
2018-08-06T22:05:32.050Z,22.10
2018-08-06T22:08:00.301Z,22.10
2018-08-06T22:10:28.460Z,22.10
2018-08-06T22:12:56.778Z,22.00
2018-08-06T22:15:24.910Z,22.00
2018-08-06T22:17:53.288Z,22.00
2018-08-06T22:20:21.523Z,22.00
2018-08-06T22:22:49.708Z,21.90
2018-08-06T22:25:17.840Z,21.90
2018-08-06T22:27:45.989Z,21.90
2018-08-06T22:30:14.337Z,21.80
2018-08-06T22:32:42.504Z,21.80
2018-08-06T22:35:12.336Z,21.80
2018-08-06T22:37:41.378Z,21.70
2018-08-06T22:40:11.210Z,21.70
2018-08-06T22:42:39.941Z,21.60
2018-08-06T22:45:09.645Z,21.60
2018-08-06T22:47:38.005Z,21.60
2018-08-06T22:50:07.935Z,21.50
2018-08-06T22:52:36.051Z,21.50
2018-08-06T22:55:04.673Z,21.50
2018-08-06T22:57:32.978Z,21.40
2018-08-06T23:00:01.279Z,21.40
2018-08-06T23:02:29.530Z,21.40
2018-08-06T23:04:57.792Z,21.30
2018-08-06T23:07:26.131Z,21.20
2018-08-06T23:09:54.410Z,21.20
2018-08-06T23:12:22.686Z,21.10
2018-08-06T23:14:50.888Z,21.10
2018-08-06T23:17:19.129Z,21.10
2018-08-06T23:19:47.317Z,21.10
2018-08-06T23:22:15.812Z,21.00
2018-08-06T23:24:44.136Z,21.00
2018-08-06T23:27:12.469Z,21.00
2018-08-06T23:29:40.983Z,21.00
2018-08-06T23:32:09.224Z,20.90
2018-08-06T23:34:37.635Z,20.90
2018-08-06T23:37:06.126Z,20.80
2018-08-06T23:39:34.332Z,20.80
2018-08-06T23:42:03.325Z,20.70
2018-08-06T23:44:31.439Z,20.70
2018-08-06T23:46:59.608Z,20.70
2018-08-06T23:51:55.790Z,20.60
2018-08-06T23:54:23.910Z,20.60
2018-08-06T23:56:52.063Z,20.60
2018-08-06T23:59:20.287Z,20.50
